Time;durP1;ratioP1;P1;durP2;ratioP2;P2;SDS_P1;SDS_P2;PMS_P1;PMS_P2;Temp;Humidity;BMP_temperature;BMP_pressure;BME280_temperature;BME280_humidity;BME280_pressure;Samples;Min_cycle;Max_cycle;Signal;HPM_P1;HPM_P2
2021/08/29 00:01:04;;;;;;;4.72;2.47;;;;;;;;;;4985468;28;20046;-54
2021/08/29 00:03:29;;;;;;;4.18;2.33;;;;;;;;;;4984883;28;20113;-56
2021/08/29 00:05:54;;;;;;;3.85;2.15;;;;;;;;;;4985988;28;20378;-55
2021/08/29 00:08:20;;;;;;;4.05;2.00;;;;;;;;;;4985502;28;20030;-52
2021/08/29 00:10:45;;;;;;;6.20;2.40;;;;;;;;;;4985175;28;20065;-54
2021/08/29 00:13:10;;;;;;;3.78;2.15;;;;;;;;;;4985738;28;20030;-55
2021/08/29 00:15:36;;;;;;;4.28;2.08;;;;;;;;;;4985936;28;20109;-56
2021/08/29 00:18:02;;;;;;;4.25;2.20;;;;;;;;;;4988398;28;20073;-54
2021/08/29 00:20:27;;;;;;;3.28;1.92;;;;;;;;;;4988976;28;20081;-57
2021/08/29 00:22:53;;;;;;;3.88;2.30;;;;;;;;;;4989618;28;20037;-51
2021/08/29 00:25:18;;;;;;;4.88;2.45;;;;;;;;;;4990882;28;20026;-51
2021/08/29 00:27:43;;;;;;;5.38;2.35;;;;;;;;;;4989555;28;20026;-51
2021/08/29 00:30:09;;;;;;;3.97;2.15;;;;;;;;;;4989890;28;20425;-54
2021/08/29 00:32:34;;;;;;;3.85;2.28;;;;;;;;;;4988222;28;20026;-53
2021/08/29 00:35:00;;;;;;;4.07;1.65;;;;;;;;;;4989152;28;20018;-54
2021/08/29 00:37:25;;;;;;;5.57;2.05;;;;;;;;;;4989143;28;20031;-54
2021/08/29 00:39:50;;;;;;;3.70;2.05;;;;;;;;;;4989461;28;20061;-50
2021/08/29 00:42:16;;;;;;;5.20;2.25;;;;;;;;;;4987628;28;20110;-57
2021/08/29 00:44:41;;;;;;;4.55;2.40;;;;;;;;;;4989670;28;20670;-54
2021/08/29 00:47:07;;;;;;;3.40;1.80;;;;;;;;;;4987987;28;20038;-53
2021/08/29 00:49:37;;;;;;;4.15;2.42;;;;;;;;;;4982172;28;20560;-51
2021/08/29 00:52:03;;;;;;;3.78;2.40;;;;;;;;;;4986968;28;20038;-55
2021/08/29 00:54:35;;;;;;;2.70;1.55;;;;;;;;;;4989339;28;20128;-52
2021/08/29 00:57:03;;;;;;;3.65;2.00;;;;;;;;;;4988129;28;20505;-54
2021/08/29 00:59:29;;;;;;;3.75;2.28;;;;;;;;;;4989240;28;20109;-55
2021/08/29 01:02:00;;;;;;;3.75;2.10;;;;;;;;;;4989022;28;20075;-53
2021/08/29 01:04:33;;;;;;;4.47;2.33;;;;;;;;;;4987838;28;20026;-57
2021/08/29 01:07:06;;;;;;;3.47;2.17;;;;;;;;;;4989119;28;20030;-53
2021/08/29 01:09:34;;;;;;;5.47;2.10;;;;;;;;;;4987850;28;20166;-50
2021/08/29 01:12:00;;;;;;;5.00;2.60;;;;;;;;;;4987314;28;20030;-53
2021/08/29 01:14:28;;;;;;;5.38;2.25;;;;;;;;;;4989007;28;20022;-52
2021/08/29 01:16:57;;;;;;;4.35;2.63;;;;;;;;;;4985987;28;20034;-54
2021/08/29 01:19:33;;;;;;;3.75;2.08;;;;;;;;;;4988395;28;20461;-57
2021/08/29 01:21:59;;;;;;;5.05;2.25;;;;;;;;;;4987660;28;20085;-56
2021/08/29 01:24:26;;;;;;;4.65;2.33;;;;;;;;;;4988890;28;20114;-55
2021/08/29 01:27:16;;;;;;;5.72;2.38;;;;;;;;;;4987666;28;20105;-55
2021/08/29 01:29:42;;;;;;;5.22;2.60;;;;;;;;;;4984438;28;20086;-52
2021/08/29 01:32:08;;;;;;;4.47;2.30;;;;;;;;;;4967412;28;20034;-55
2021/08/29 01:34:34;;;;;;;5.55;2.20;;;;;;;;;;4988124;28;20029;-54
2021/08/29 01:37:00;;;;;;;4.32;2.17;;;;;;;;;;4988220;28;20036;-56
2021/08/29 01:39:26;;;;;;;4.68;2.10;;;;;;;;;;4988060;28;20025;-53
2021/08/29 01:41:53;;;;;;;3.40;1.88;;;;;;;;;;4987119;28;20034;-56
2021/08/29 01:44:21;;;;;;;4.10;2.20;;;;;;;;;;4987417;28;20573;-56
2021/08/29 01:46:47;;;;;;;5.35;2.40;;;;;;;;;;4987916;28;20030;-54
2021/08/29 01:49:13;;;;;;;4.55;2.08;;;;;;;;;;4987405;28;20108;-54
2021/08/29 01:51:40;;;;;;;3.50;2.00;;;;;;;;;;4987914;28;20038;-54
2021/08/29 01:54:06;;;;;;;4.18;2.25;;;;;;;;;;4987376;28;20455;-52
2021/08/29 01:57:00;;;;;;;3.67;2.35;;;;;;;;;;4986993;28;20034;-54
2021/08/29 01:59:26;;;;;;;4.50;2.15;;;;;;;;;;4987793;28;20019;-55
2021/08/29 02:01:52;;;;;;;4.57;2.15;;;;;;;;;;4986784;28;20109;-50
2021/08/29 02:04:21;;;;;;;4.88;2.53;;;;;;;;;;4987648;28;20037;-54
2021/08/29 02:06:49;;;;;;;4.47;2.25;;;;;;;;;;4987374;28;20030;-55
2021/08/29 02:09:18;;;;;;;3.97;1.88;;;;;;;;;;4987825;28;20022;-53
2021/08/29 02:11:49;;;;;;;5.70;2.25;;;;;;;;;;4987319;28;20069;-57
2021/08/29 02:14:20;;;;;;;4.35;2.17;;;;;;;;;;4987413;28;20029;-54
2021/08/29 02:16:46;;;;;;;4.13;2.10;;;;;;;;;;4987066;28;20567;-53
2021/08/29 02:19:19;;;;;;;3.40;1.85;;;;;;;;;;4986591;28;20066;-56
2021/08/29 02:21:46;;;;;;;4.82;1.98;;;;;;;;;;4985057;28;20049;-53
2021/08/29 02:24:11;;;;;;;5.78;2.65;;;;;;;;;;4991131;28;20109;-53
2021/08/29 02:26:38;;;;;;;3.70;2.20;;;;;;;;;;4986571;28;20486;-53
2021/08/29 02:29:03;;;;;;;3.50;1.98;;;;;;;;;;4986920;28;20117;-55
2021/08/29 02:31:29;;;;;;;3.88;1.85;;;;;;;;;;4985691;28;20532;-52
2021/08/29 02:33:55;;;;;;;3.70;1.95;;;;;;;;;;4986205;28;20104;-55
2021/08/29 02:36:20;;;;;;;4.47;2.25;;;;;;;;;;4987122;28;20033;-57
2021/08/29 02:38:49;;;;;;;4.68;2.13;;;;;;;;;;4986591;28;20101;-57
2021/08/29 02:41:17;;;;;;;3.58;2.00;;;;;;;;;;4987158;28;20026;-54
2021/08/29 02:43:44;;;;;;;4.05;2.30;;;;;;;;;;4985113;28;20065;-55
2021/08/29 02:46:09;;;;;;;3.67;2.17;;;;;;;;;;4986905;28;20034;-56
2021/08/29 02:48:36;;;;;;;4.55;2.10;;;;;;;;;;4986297;28;20073;-54
2021/08/29 02:51:02;;;;;;;5.30;2.42;;;;;;;;;;4979233;28;20121;-56
2021/08/29 02:53:27;;;;;;;6.00;2.53;;;;;;;;;;4978367;28;20022;-56
2021/08/29 02:55:56;;;;;;;4.50;2.60;;;;;;;;;;4967338;28;20041;-52
2021/08/29 02:58:21;;;;;;;5.10;2.15;;;;;;;;;;4976161;28;20030;-57
2021/08/29 03:00:47;;;;;;;4.38;2.05;;;;;;;;;;4985189;28;20019;-55
2021/08/29 03:03:13;;;;;;;3.05;2.13;;;;;;;;;;4988187;28;20049;-54
2021/08/29 03:05:39;;;;;;;3.38;1.80;;;;;;;;;;4986360;28;20630;-53
2021/08/29 03:08:05;;;;;;;5.47;2.35;;;;;;;;;;4986502;28;20080;-55
2021/08/29 03:10:31;;;;;;;5.85;2.40;;;;;;;;;;4986334;28;20018;-53
2021/08/29 03:13:01;;;;;;;3.90;2.20;;;;;;;;;;4986622;28;20049;-52
2021/08/29 03:15:28;;;;;;;4.25;2.30;;;;;;;;;;4986066;28;20026;-54
2021/08/29 03:17:55;;;;;;;4.40;2.15;;;;;;;;;;4986041;28;20165;-53
2021/08/29 03:20:20;;;;;;;5.28;2.25;;;;;;;;;;4986440;28;20524;-55
2021/08/29 03:22:46;;;;;;;3.60;2.00;;;;;;;;;;4985953;28;20031;-55
2021/08/29 03:25:12;;;;;;;6.35;2.20;;;;;;;;;;4979394;28;20426;-54
2021/08/29 03:27:38;;;;;;;6.30;2.45;;;;;;;;;;4981433;28;20030;-53
2021/08/29 03:30:03;;;;;;;3.35;2.00;;;;;;;;;;4986273;28;20029;-56
2021/08/29 03:32:29;;;;;;;3.72;2.13;;;;;;;;;;4984979;28;20034;-50
2021/08/29 03:35:00;;;;;;;4.28;2.33;;;;;;;;;;4986398;28;20100;-56
2021/08/29 03:37:26;;;;;;;4.97;2.35;;;;;;;;;;4985747;28;20036;-53
2021/08/29 03:39:52;;;;;;;4.63;2.08;;;;;;;;;;4985695;28;20022;-52
2021/08/29 03:42:19;;;;;;;5.38;2.22;;;;;;;;;;4983740;28;20409;-56
2021/08/29 03:44:45;;;;;;;4.20;2.20;;;;;;;;;;4986001;28;20104;-54
2021/08/29 03:47:11;;;;;;;4.15;2.30;;;;;;;;;;4985954;28;20065;-56
2021/08/29 03:49:37;;;;;;;3.78;2.20;;;;;;;;;;4985776;28;20030;-54
2021/08/29 03:52:03;;;;;;;4.60;2.15;;;;;;;;;;4984015;28;20496;-57
2021/08/29 03:54:28;;;;;;;3.85;2.10;;;;;;;;;;4985587;28;20049;-53
2021/08/29 03:56:54;;;;;;;4.45;2.00;;;;;;;;;;4985689;28;20486;-57
2021/08/29 03:59:19;;;;;;;3.70;1.88;;;;;;;;;;4985458;28;20767;-56
2021/08/29 04:01:45;;;;;;;5.68;2.00;;;;;;;;;;4986358;28;20485;-55
2021/08/29 04:04:10;;;;;;;3.75;2.03;;;;;;;;;;4985257;28;20030;-56
2021/08/29 04:06:37;;;;;;;3.60;2.10;;;;;;;;;;4985466;28;20105;-55
2021/08/29 04:09:05;;;;;;;5.18;2.20;;;;;;;;;;4985395;28;20019;-56
2021/08/29 04:11:31;;;;;;;3.30;1.83;;;;;;;;;;4985766;28;20097;-54
2021/08/29 04:13:58;;;;;;;3.70;1.80;;;;;;;;;;4985204;28;20088;-54
2021/08/29 04:16:23;;;;;;;3.58;1.60;;;;;;;;;;4985553;28;20022;-55
2021/08/29 04:18:49;;;;;;;3.47;2.20;;;;;;;;;;4985434;28;20666;-54
2021/08/29 04:21:17;;;;;;;3.30;1.98;;;;;;;;;;4984936;28;20026;-54
2021/08/29 04:23:43;;;;;;;4.70;2.92;;;;;;;;;;5002890;28;20568;-54
2021/08/29 04:26:09;;;;;;;5.00;1.95;;;;;;;;;;4992560;28;20105;-55
2021/08/29 04:28:36;;;;;;;5.40;1.88;;;;;;;;;;4985214;28;20034;-55
2021/08/29 04:31:08;;;;;;;3.10;1.90;;;;;;;;;;4982374;28;20045;-55
2021/08/29 04:33:34;;;;;;;5.72;1.85;;;;;;;;;;4985102;28;20030;-55
2021/08/29 04:35:59;;;;;;;3.80;2.17;;;;;;;;;;4985537;28;20022;-54
2021/08/29 04:38:27;;;;;;;3.30;1.88;;;;;;;;;;4984381;28;20054;-55
2021/08/29 04:40:52;;;;;;;3.70;1.85;;;;;;;;;;4977020;28;20027;-56
2021/08/29 04:43:17;;;;;;;3.55;1.90;;;;;;;;;;4993633;28;20022;-54
2021/08/29 04:45:43;;;;;;;3.35;1.80;;;;;;;;;;4985142;28;20058;-53
2021/08/29 04:48:08;;;;;;;5.07;1.92;;;;;;;;;;4985637;28;20022;-55
2021/08/29 04:50:34;;;;;;;3.25;2.03;;;;;;;;;;4984794;28;20097;-55
2021/08/29 04:52:59;;;;;;;2.75;1.75;;;;;;;;;;4973182;28;20031;-52
2021/08/29 04:55:24;;;;;;;3.95;2.15;;;;;;;;;;4966085;28;20094;-56
2021/08/29 04:57:50;;;;;;;3.17;1.80;;;;;;;;;;4977225;28;20484;-53
2021/08/29 05:00:15;;;;;;;4.00;2.00;;;;;;;;;;4985355;28;20490;-53
2021/08/29 05:02:41;;;;;;;4.75;2.17;;;;;;;;;;4988033;28;20028;-55
2021/08/29 05:05:06;;;;;;;3.17;1.70;;;;;;;;;;4987874;28;20022;-51
2021/08/29 05:07:32;;;;;;;2.92;1.55;;;;;;;;;;4998905;28;20021;-55
2021/08/29 05:09:58;;;;;;;2.33;1.30;;;;;;;;;;4991556;28;20478;-56
2021/08/29 05:12:23;;;;;;;3.20;1.35;;;;;;;;;;4988505;28;20416;-52
2021/08/29 05:14:49;;;;;;;3.15;1.60;;;;;;;;;;4987662;28;20388;-53
2021/08/29 05:17:14;;;;;;;2.40;1.40;;;;;;;;;;4988841;28;20477;-51
2021/08/29 05:19:39;;;;;;;6.32;2.40;;;;;;;;;;4987726;28;20034;-52
2021/08/29 05:22:05;;;;;;;3.03;1.30;;;;;;;;;;4985788;28;20026;-53
2021/08/29 05:24:30;;;;;;;3.63;1.17;;;;;;;;;;4987521;28;20411;-56
2021/08/29 05:26:55;;;;;;;3.92;1.30;;;;;;;;;;4986226;28;20038;-54
2021/08/29 05:29:21;;;;;;;2.50;0.93;;;;;;;;;;4987116;28;20031;-49
2021/08/29 05:31:46;;;;;;;2.28;1.15;;;;;;;;;;4986365;28;20500;-47
2021/08/29 05:34:12;;;;;;;2.35;1.00;;;;;;;;;;4986509;28;20117;-49
2021/08/29 05:36:37;;;;;;;2.75;1.00;;;;;;;;;;4983830;28;20109;-48
2021/08/29 05:39:03;;;;;;;2.22;1.20;;;;;;;;;;4982653;28;20019;-49
2021/08/29 05:41:28;;;;;;;1.58;0.80;;;;;;;;;;4984742;28;20041;-50
2021/08/29 05:43:53;;;;;;;4.45;1.00;;;;;;;;;;4983154;28;20022;-53
2021/08/29 05:46:19;;;;;;;2.70;0.93;;;;;;;;;;4973038;28;20031;-50
2021/08/29 05:48:45;;;;;;;1.98;0.88;;;;;;;;;;4985090;28;20030;-50
2021/08/29 05:51:11;;;;;;;1.48;0.93;;;;;;;;;;4983632;28;20405;-45
2021/08/29 05:53:36;;;;;;;2.17;1.10;;;;;;;;;;4987527;28;20028;-45
2021/08/29 05:56:01;;;;;;;1.60;0.95;;;;;;;;;;4988312;28;20026;-49
2021/08/29 05:58:27;;;;;;;1.48;0.90;;;;;;;;;;4987411;28;20109;-48
2021/08/29 06:00:54;;;;;;;3.53;1.10;;;;;;;;;;4986736;28;20019;-49
2021/08/29 06:03:19;;;;;;;1.33;0.88;;;;;;;;;;4988131;28;20035;-50
2021/08/29 06:05:44;;;;;;;1.35;0.90;;;;;;;;;;4986746;28;20394;-51
2021/08/29 06:08:10;;;;;;;3.85;1.10;;;;;;;;;;4987438;28;20041;-53
2021/08/29 06:10:35;;;;;;;2.13;1.05;;;;;;;;;;4987150;28;20037;-50
2021/08/29 06:13:00;;;;;;;1.85;1.10;;;;;;;;;;4986978;28;20056;-52
2021/08/29 06:15:26;;;;;;;1.92;1.00;;;;;;;;;;4987952;28;20037;-50
2021/08/29 06:17:51;;;;;;;1.77;0.88;;;;;;;;;;4992937;28;20030;-52
2021/08/29 06:20:16;;;;;;;2.75;1.27;;;;;;;;;;4987666;28;20029;-46
2021/08/29 06:22:42;;;;;;;3.25;1.58;;;;;;;;;;4989323;28;20022;-48
2021/08/29 06:25:08;;;;;;;1.90;1.00;;;;;;;;;;4987524;28;20034;-46
2021/08/29 06:27:33;;;;;;;2.60;1.30;;;;;;;;;;4987002;28;20030;-47
2021/08/29 06:29:58;;;;;;;2.67;1.30;;;;;;;;;;4986922;28;20072;-47
2021/08/29 06:32:23;;;;;;;1.70;0.93;;;;;;;;;;4987444;28;20397;-49
2021/08/29 06:34:49;;;;;;;1.85;0.95;;;;;;;;;;4986394;28;20062;-47
2021/08/29 06:37:14;;;;;;;1.65;0.85;;;;;;;;;;4986946;28;20137;-45
2021/08/29 06:39:39;;;;;;;1.35;0.88;;;;;;;;;;4986578;28;20478;-48
2021/08/29 06:42:05;;;;;;;1.58;0.85;;;;;;;;;;4985528;28;20627;-46
2021/08/29 06:44:30;;;;;;;1.58;0.90;;;;;;;;;;4986581;28;20184;-46
2021/08/29 06:46:55;;;;;;;1.83;0.90;;;;;;;;;;4986707;28;20041;-50
2021/08/29 06:49:21;;;;;;;1.15;0.70;;;;;;;;;;4986585;28;20102;-48
2021/08/29 06:51:46;;;;;;;2.20;0.90;;;;;;;;;;4987056;28;20069;-49
2021/08/29 06:54:12;;;;;;;2.20;1.00;;;;;;;;;;4986601;28;20026;-48
2021/08/29 06:56:37;;;;;;;1.58;1.00;;;;;;;;;;4984347;28;20030;-48
2021/08/29 06:59:02;;;;;;;1.67;0.80;;;;;;;;;;4984139;28;20022;-49
2021/08/29 07:01:28;;;;;;;3.28;1.00;;;;;;;;;;4984626;28;20030;-50
2021/08/29 07:03:53;;;;;;;1.42;0.85;;;;;;;;;;4984539;28;20037;-51
2021/08/29 07:06:18;;;;;;;1.48;0.90;;;;;;;;;;4984564;28;20045;-47
2021/08/29 07:08:44;;;;;;;3.45;1.10;;;;;;;;;;4984758;28;20082;-52
2021/08/29 07:11:09;;;;;;;2.33;0.80;;;;;;;;;;4983378;28;20046;-49
2021/08/29 07:13:35;;;;;;;2.00;0.88;;;;;;;;;;4986741;28;20040;-48
2021/08/29 07:16:00;;;;;;;1.92;1.05;;;;;;;;;;4984736;28;20097;-50
2021/08/29 07:18:26;;;;;;;1.58;0.88;;;;;;;;;;4983696;28;20033;-51
2021/08/29 07:20:51;;;;;;;1.42;0.80;;;;;;;;;;4982622;28;20045;-48
2021/08/29 07:23:17;;;;;;;2.30;0.95;;;;;;;;;;4983532;28;20508;-49
2021/08/29 07:25:44;;;;;;;2.05;0.82;;;;;;;;;;4983643;28;20401;-49
2021/08/29 07:28:09;;;;;;;1.25;0.80;;;;;;;;;;4983447;28;20550;-49
2021/08/29 07:30:34;;;;;;;1.95;0.80;;;;;;;;;;4984038;28;20036;-50
2021/08/29 07:33:00;;;;;;;2.00;0.90;;;;;;;;;;4983227;28;20023;-49
2021/08/29 07:35:25;;;;;;;1.25;0.75;;;;;;;;;;4984202;28;20022;-47
2021/08/29 07:37:50;;;;;;;2.83;1.00;;;;;;;;;;4984442;28;20105;-47
2021/08/29 07:40:19;;;;;;;1.75;0.80;;;;;;;;;;4981294;28;20024;-51
2021/08/29 07:42:45;;;;;;;0.90;0.70;;;;;;;;;;4983331;28;20118;-47
2021/08/29 07:45:11;;;;;;;1.70;0.73;;;;;;;;;;4984337;28;20066;-51
2021/08/29 07:47:36;;;;;;;1.25;0.70;;;;;;;;;;4982727;28;20030;-50
2021/08/29 07:50:02;;;;;;;2.80;0.75;;;;;;;;;;4984277;28;20074;-50
2021/08/29 07:52:28;;;;;;;0.95;0.63;;;;;;;;;;4983410;28;20071;-49
2021/08/29 07:54:53;;;;;;;0.75;0.57;;;;;;;;;;4983960;28;20034;-50
2021/08/29 07:57:18;;;;;;;3.03;1.00;;;;;;;;;;4983624;28;20034;-48
2021/08/29 07:59:43;;;;;;;1.15;0.70;;;;;;;;;;4978816;28;20052;-47
2021/08/29 08:02:10;;;;;;;2.22;1.20;;;;;;;;;;4983210;28;20624;-48
2021/08/29 08:04:35;;;;;;;1.63;0.85;;;;;;;;;;4983400;28;20034;-50
2021/08/29 08:07:00;;;;;;;2.17;1.15;;;;;;;;;;4983516;28;20037;-46
2021/08/29 08:09:25;;;;;;;2.17;0.90;;;;;;;;;;4983990;28;20559;-50
2021/08/29 08:11:51;;;;;;;2.78;1.08;;;;;;;;;;4982832;28;20030;-51
2021/08/29 08:14:16;;;;;;;3.10;1.42;;;;;;;;;;4984778;28;20026;-48
2021/08/29 08:16:42;;;;;;;2.17;1.00;;;;;;;;;;4983140;28;20462;-50
2021/08/29 08:19:07;;;;;;;1.58;0.90;;;;;;;;;;4982755;28;20023;-51
2021/08/29 08:21:32;;;;;;;1.35;0.90;;;;;;;;;;4983638;28;20022;-52
2021/08/29 08:23:58;;;;;;;2.25;1.00;;;;;;;;;;4983173;28;20026;-51
2021/08/29 08:26:23;;;;;;;2.70;1.35;;;;;;;;;;4983955;28;20702;-51
2021/08/29 08:28:48;;;;;;;2.55;0.90;;;;;;;;;;4983283;28;20037;-53
2021/08/29 08:31:14;;;;;;;1.73;1.00;;;;;;;;;;4971179;28;20357;-52
2021/08/29 08:33:39;;;;;;;1.73;0.90;;;;;;;;;;4983820;28;20053;-51
2021/08/29 08:36:05;;;;;;;2.78;1.25;;;;;;;;;;4981964;28;20030;-49
2021/08/29 08:38:30;;;;;;;1.85;1.20;;;;;;;;;;4986830;28;20054;-51
2021/08/29 08:40:55;;;;;;;2.97;1.10;;;;;;;;;;4984306;28;20030;-48
2021/08/29 08:43:21;;;;;;;3.97;1.20;;;;;;;;;;4980756;28;21982;-61
2021/08/29 08:45:47;;;;;;;3.67;1.30;;;;;;;;;;4987219;28;20042;-51
2021/08/29 08:48:13;;;;;;;2.30;1.25;;;;;;;;;;4985592;28;20045;-58
2021/08/29 08:50:43;;;;;;;2.20;1.30;;;;;;;;;;4987632;28;20057;-59
2021/08/29 08:53:10;;;;;;;1.67;1.00;;;;;;;;;;4987330;28;20611;-60
2021/08/29 08:55:37;;;;;;;2.30;1.20;;;;;;;;;;4987245;28;20038;-47
2021/08/29 08:58:03;;;;;;;2.10;1.17;;;;;;;;;;4986984;28;20033;-49
2021/08/29 09:00:28;;;;;;;4.38;1.13;;;;;;;;;;4982899;28;20034;-49
2021/08/29 09:02:55;;;;;;;1.95;1.33;;;;;;;;;;4982253;28;20038;-58
2021/08/29 09:05:22;;;;;;;2.67;1.38;;;;;;;;;;4987519;28;20028;-52
2021/08/29 09:07:47;;;;;;;16.63;9.98;;;;;;;;;;4986561;28;20062;-57
2021/08/29 09:10:13;;;;;;;5.45;2.92;;;;;;;;;;4987194;28;20061;-50
2021/08/29 09:12:59;;;;;;;4.18;2.00;;;;;;;;;;4986354;28;20038;-51
2021/08/29 09:15:25;;;;;;;4.68;1.63;;;;;;;;;;4982781;28;20537;-46
2021/08/29 09:17:51;;;;;;;2.85;1.70;;;;;;;;;;4986486;28;20038;-57
2021/08/29 09:20:26;;;;;;;2.72;1.55;;;;;;;;;;4987094;28;20077;-53
2021/08/29 09:23:06;;;;;;;3.10;1.90;;;;;;;;;;4986605;28;20081;-47
2021/08/29 09:25:39;;;;;;;2.75;1.23;;;;;;;;;;4986355;28;20030;-59
2021/08/29 09:28:09;;;;;;;3.88;1.58;;;;;;;;;;4986817;28;20118;-55
2021/08/29 09:30:34;;;;;;;2.80;1.60;;;;;;;;;;4982351;28;20046;-56
2021/08/29 09:33:02;;;;;;;3.67;1.60;;;;;;;;;;4974380;28;20023;-50
2021/08/29 09:35:30;;;;;;;2.47;1.50;;;;;;;;;;4984304;28;20085;-50
2021/08/29 09:37:56;;;;;;;2.45;1.30;;;;;;;;;;4986048;28;20030;-47
2021/08/29 09:40:23;;;;;;;1.90;1.20;;;;;;;;;;4986495;28;20022;-46
2021/08/29 09:42:51;;;;;;;4.28;1.40;;;;;;;;;;4985326;28;20030;-47
2021/08/29 09:45:40;;;;;;;2.65;1.40;;;;;;;;;;4984369;28;20034;-47
2021/08/29 09:48:08;;;;;;;2.78;1.40;;;;;;;;;;4985794;28;20063;-58
2021/08/29 09:50:36;;;;;;;2.72;1.48;;;;;;;;;;4985839;28;20069;-55
2021/08/29 09:53:04;;;;;;;6.30;2.50;;;;;;;;;;4986318;28;20034;-54
2021/08/29 09:55:38;;;;;;;3.75;1.50;;;;;;;;;;4986503;28;20030;-57
2021/08/29 09:58:22;;;;;;;2.03;1.23;;;;;;;;;;4986131;28;20030;-55
2021/08/29 10:01:13;;;;;;;3.17;1.45;;;;;;;;;;4986277;28;20034;-55
2021/08/29 10:03:40;;;;;;;2.70;1.27;;;;;;;;;;4982189;28;20101;-56
2021/08/29 10:06:21;;;;;;;2.50;1.20;;;;;;;;;;4989981;28;20037;-57
2021/08/29 10:08:52;;;;;;;2.10;1.20;;;;;;;;;;4967526;28;20035;-52
2021/08/29 10:11:19;;;;;;;2.83;1.30;;;;;;;;;;4969605;28;20042;-56
2021/08/29 10:13:45;;;;;;;2.58;1.25;;;;;;;;;;4988116;28;20425;-57
2021/08/29 10:16:11;;;;;;;1.60;1.10;;;;;;;;;;4984767;28;20041;-59
2021/08/29 10:18:40;;;;;;;3.40;1.40;;;;;;;;;;4984972;28;20109;-58
2021/08/29 10:21:07;;;;;;;2.13;1.35;;;;;;;;;;4985119;28;20041;-59
2021/08/29 10:23:33;;;;;;;2.10;1.23;;;;;;;;;;4985605;28;20502;-60
2021/08/29 10:26:02;;;;;;;2.85;1.33;;;;;;;;;;4982809;28;20062;-59
2021/08/29 10:28:31;;;;;;;1.92;1.20;;;;;;;;;;4976122;28;20026;-60
2021/08/29 10:30:59;;;;;;;2.13;1.13;;;;;;;;;;4985481;28;20742;-56
2021/08/29 10:33:25;;;;;;;2.50;1.38;;;;;;;;;;4978732;28;20038;-56
2021/08/29 10:35:51;;;;;;;2.50;1.40;;;;;;;;;;4980170;28;20118;-57
2021/08/29 10:38:17;;;;;;;2.85;1.27;;;;;;;;;;4978346;28;20133;-57
2021/08/29 10:40:46;;;;;;;2.35;1.20;;;;;;;;;;4984735;28;20041;-57
2021/08/29 10:43:11;;;;;;;2.17;1.40;;;;;;;;;;4979735;28;20037;-58
2021/08/29 10:45:37;;;;;;;1.88;1.15;;;;;;;;;;4983920;28;20092;-56
2021/08/29 10:48:03;;;;;;;2.67;1.45;;;;;;;;;;4985072;28;20486;-55
2021/08/29 10:50:28;;;;;;;2.38;1.20;;;;;;;;;;4985126;28;20053;-55
2021/08/29 10:52:54;;;;;;;2.92;1.15;;;;;;;;;;4984360;28;20105;-55
2021/08/29 10:55:19;;;;;;;1.60;1.00;;;;;;;;;;4985276;28;20048;-56
2021/08/29 10:57:47;;;;;;;1.85;1.00;;;;;;;;;;4984547;28;20773;-57
2021/08/29 11:00:18;;;;;;;2.13;1.20;;;;;;;;;;4985019;28;20165;-56
2021/08/29 11:02:46;;;;;;;2.15;1.30;;;;;;;;;;4984506;28;20037;-58
2021/08/29 11:05:17;;;;;;;2.80;1.15;;;;;;;;;;4984655;28;20030;-58
2021/08/29 11:07:48;;;;;;;2.50;1.20;;;;;;;;;;4985039;28;20485;-57
2021/08/29 11:10:36;;;;;;;1.63;1.08;;;;;;;;;;4984749;28;20058;-56
2021/08/29 11:13:29;;;;;;;1.83;1.17;;;;;;;;;;4973992;28;20033;-55
2021/08/29 11:16:07;;;;;;;2.28;1.30;;;;;;;;;;4982936;28;20058;-58
2021/08/29 11:18:56;;;;;;;3.05;1.25;;;;;;;;;;4984616;28;20100;-58
2021/08/29 11:21:21;;;;;;;1.52;0.90;;;;;;;;;;4967267;28;20344;-57
2021/08/29 11:23:46;;;;;;;1.90;1.08;;;;;;;;;;4982174;28;20734;-56
2021/08/29 11:26:29;;;;;;;2.60;1.00;;;;;;;;;;4980551;28;20023;-58
2021/08/29 11:28:54;;;;;;;7.43;1.80;;;;;;;;;;4983204;28;20122;-54
2021/08/29 11:31:54;;;;;;;3.05;1.10;;;;;;;;;;4982862;28;20125;-54
2021/08/29 11:34:20;;;;;;;2.60;1.30;;;;;;;;;;4974038;28;20591;-56
2021/08/29 11:36:46;;;;;;;2.45;1.35;;;;;;;;;;4984505;28;20038;-55
2021/08/29 11:39:35;;;;;;;2.13;1.30;;;;;;;;;;4978828;28;20030;-56
2021/08/29 11:42:16;;;;;;;3.78;1.17;;;;;;;;;;4982814;28;20030;-54
2021/08/29 11:44:42;;;;;;;;;;;;;;;;;;4984636;28;20093;-58
2021/08/29 11:47:07;;;;;;;2.65;1.20;;;;;;;;;;4983558;28;19917;-57
2021/08/29 11:49:33;;;;;;;1.33;1.02;;;;;;;;;;4981066;28;20026;-61
2021/08/29 11:51:59;;;;;;;2.38;1.20;;;;;;;;;;4982772;28;20041;-58
2021/08/29 11:54:24;;;;;;;1.48;0.95;;;;;;;;;;4983862;28;20030;-57
2021/08/29 11:56:49;;;;;;;1.80;1.00;;;;;;;;;;4984410;28;20030;-58
2021/08/29 11:59:27;;;;;;;1.80;0.93;;;;;;;;;;4983782;28;20034;-59
2021/08/29 12:01:56;;;;;;;2.03;1.10;;;;;;;;;;4983710;28;20034;-59
2021/08/29 12:04:22;;;;;;;3.72;1.10;;;;;;;;;;4983500;28;20030;-59
2021/08/29 12:07:05;;;;;;;2.22;1.33;;;;;;;;;;4987112;28;20034;-58
2021/08/29 12:09:41;;;;;;;1.60;1.00;;;;;;;;;;4985424;28;20030;-58
2021/08/29 12:12:08;;;;;;;1.17;0.85;;;;;;;;;;4982485;28;20034;-58
2021/08/29 12:14:33;;;;;;;2.50;1.17;;;;;;;;;;4981495;28;20041;-58
2021/08/29 12:17:02;;;;;;;2.30;1.00;;;;;;;;;;4982342;28;20033;-59
2021/08/29 12:19:37;;;;;;;2.83;1.15;;;;;;;;;;4979888;28;20026;-58
2021/08/29 12:22:08;;;;;;;2.72;1.30;;;;;;;;;;4978996;28;20030;-57
2021/08/29 12:24:41;;;;;;;1.63;1.00;;;;;;;;;;4980400;28;20489;-56
2021/08/29 12:27:07;;;;;;;2.40;1.10;;;;;;;;;;4981223;28;20042;-53
2021/08/29 12:29:43;;;;;;;2.60;1.48;;;;;;;;;;4975533;28;20753;-53
2021/08/29 12:32:10;;;;;;;1.73;1.05;;;;;;;;;;4983340;28;20046;-48
2021/08/29 12:34:36;;;;;;;1.63;1.10;;;;;;;;;;4982362;28;20026;-52
2021/08/29 12:37:03;;;;;;;1.58;1.15;;;;;;;;;;4982804;28;20089;-56
2021/08/29 12:39:29;;;;;;;2.55;1.10;;;;;;;;;;4981292;28;20027;-50
2021/08/29 12:41:54;;;;;;;3.53;1.13;;;;;;;;;;4976996;28;20073;-63
2021/08/29 12:44:32;;;;;;;13.82;5.20;;;;;;;;;;4979773;28;20037;-61
2021/08/29 12:46:57;;;;;;;12.73;5.57;;;;;;;;;;4983298;28;20018;-47
2021/08/29 12:49:23;;;;;;;13.63;5.32;;;;;;;;;;4977956;28;20022;-61
2021/08/29 12:51:48;;;;;;;12.30;4.70;;;;;;;;;;4984903;28;20027;-56
2021/08/29 12:54:14;;;;;;;21.15;7.82;;;;;;;;;;4983953;28;20038;-55
2021/08/29 12:56:40;;;;;;;8.27;3.38;;;;;;;;;;4984141;28;20026;-61
2021/08/29 12:59:05;;;;;;;7.88;3.20;;;;;;;;;;4983987;28;20479;-63
2021/08/29 13:01:30;;;;;;;6.82;2.65;;;;;;;;;;4982898;28;20035;-61
2021/08/29 13:03:56;;;;;;;6.05;2.75;;;;;;;;;;4983458;28;20103;-54
2021/08/29 13:06:22;;;;;;;6.32;2.50;;;;;;;;;;4983472;28;20100;-58
2021/08/29 13:08:50;;;;;;;5.80;3.50;;;;;;;;;;4983960;28;20034;-79
2021/08/29 13:11:20;;;;;;;6.22;3.65;;;;;;;;;;4983074;28;20038;-71
2021/08/29 13:13:57;;;;;;;6.32;3.45;;;;;;;;;;4984370;28;20038;-71
2021/08/29 13:16:42;;;;;;;5.40;3.40;;;;;;;;;;4978708;28;20041;-71
2021/08/29 13:19:08;;;;;;;5.45;3.50;;;;;;;;;;4973961;28;20030;-72
2021/08/29 13:21:38;;;;;;;7.28;3.58;;;;;;;;;;4981507;28;20483;-71
2021/08/29 13:24:27;;;;;;;5.15;2.97;;;;;;;;;;4984788;28;20469;-71
2021/08/29 13:26:54;;;;;;;4.45;2.65;;;;;;;;;;4985518;28;20391;-71
2021/08/29 13:29:20;;;;;;;5.57;2.83;;;;;;;;;;4986156;28;20074;-72
2021/08/29 13:31:47;;;;;;;5.60;2.55;;;;;;;;;;4986203;28;20486;-71
2021/08/29 13:34:13;;;;;;;6.20;3.50;;;;;;;;;;4986142;28;20028;-72
2021/08/29 13:36:46;;;;;;;5.85;3.45;;;;;;;;;;4985104;28;20101;-72
2021/08/29 13:39:13;;;;;;;5.30;2.42;;;;;;;;;;4984857;28;20022;-72
2021/08/29 13:41:39;;;;;;;3.60;2.05;;;;;;;;;;4982742;28;20660;-71
2021/08/29 13:44:04;;;;;;;5.38;2.50;;;;;;;;;;4983093;28;20037;-72
2021/08/29 13:46:30;;;;;;;3.42;1.70;;;;;;;;;;4982813;28;20026;-72
2021/08/29 13:48:56;;;;;;;4.63;2.13;;;;;;;;;;4982886;28;20548;-72
2021/08/29 13:51:22;;;;;;;3.13;1.58;;;;;;;;;;4980716;28;20792;-71
2021/08/29 13:53:55;;;;;;;4.82;1.80;;;;;;;;;;4982682;28;20092;-71
2021/08/29 13:56:21;;;;;;;3.53;1.90;;;;;;;;;;4981727;28;20113;-72
2021/08/29 13:58:46;;;;;;;4.13;2.58;;;;;;;;;;4986343;28;20022;-72
2021/08/29 14:01:12;;;;;;;4.05;2.40;;;;;;;;;;4988966;28;20030;-72
2021/08/29 14:03:37;;;;;;;4.68;2.83;;;;;;;;;;4985050;28;20034;-71
2021/08/29 14:06:02;;;;;;;4.35;2.65;;;;;;;;;;4984087;28;20081;-71
2021/08/29 14:08:28;;;;;;;5.63;3.00;;;;;;;;;;4984269;28;20041;-72
2021/08/29 14:10:53;;;;;;;4.70;2.50;;;;;;;;;;4985736;28;20033;-72
2021/08/29 14:13:19;;;;;;;4.53;2.70;;;;;;;;;;4985620;28;20580;-71
2021/08/29 14:15:44;;;;;;;4.85;2.30;;;;;;;;;;4985264;28;20042;-72
2021/08/29 14:18:09;;;;;;;5.45;3.30;;;;;;;;;;4985487;28;20113;-71
2021/08/29 14:20:36;;;;;;;6.15;3.15;;;;;;;;;;4984693;28;20034;-72
2021/08/29 14:23:01;;;;;;;4.68;3.00;;;;;;;;;;4985328;28;20033;-72
2021/08/29 14:25:27;;;;;;;5.07;3.05;;;;;;;;;;4985744;28;20030;-72
2021/08/29 14:27:53;;;;;;;5.97;3.38;;;;;;;;;;4975576;28;20093;-72
2021/08/29 14:30:24;;;;;;;5.90;3.58;;;;;;;;;;4985356;28;20030;-71
2021/08/29 14:32:50;;;;;;;5.40;2.97;;;;;;;;;;4982818;28;20053;-71
2021/08/29 14:35:17;;;;;;;6.20;3.78;;;;;;;;;;4986791;28;20826;-72
2021/08/29 14:37:43;;;;;;;6.45;3.63;;;;;;;;;;4987003;28;20117;-72
2021/08/29 14:40:09;;;;;;;5.60;3.42;;;;;;;;;;4986806;28;20027;-72
2021/08/29 14:42:35;;;;;;;4.75;2.97;;;;;;;;;;4986452;28;20022;-72
2021/08/29 14:45:00;;;;;;;4.68;2.53;;;;;;;;;;4971312;28;20030;-72